sensor_id;sensor_type;location;lat;lon;timestamp;P1;durP1;ratioP1;P2;durP2;ratioP2
66342;SDS011;53144;51.524;5.080;2023-05-07T00:01:45;11.55;;;7.80;;
66342;SDS011;53144;51.524;5.080;2023-05-07T00:04:10;10.85;;;8.82;;
66342;SDS011;53144;51.524;5.080;2023-05-07T00:06:35;11.10;;;8.55;;
66342;SDS011;53144;51.524;5.080;2023-05-07T00:09:01;8.82;;;7.97;;
66342;SDS011;53144;51.524;5.080;2023-05-07T00:11:27;9.43;;;7.95;;
66342;SDS011;53144;51.524;5.080;2023-05-07T00:13:53;9.20;;;8.18;;
66342;SDS011;53144;51.524;5.080;2023-05-07T00:16:18;11.70;;;8.70;;
66342;SDS011;53144;51.524;5.080;2023-05-07T00:18:44;10.05;;;9.05;;
66342;SDS011;53144;51.524;5.080;2023-05-07T00:21:10;11.57;;;9.57;;
66342;SDS011;53144;51.524;5.080;2023-05-07T00:23:36;10.20;;;8.98;;
66342;SDS011;53144;51.524;5.080;2023-05-07T00:26:01;10.80;;;9.05;;
66342;SDS011;53144;51.524;5.080;2023-05-07T00:28:26;11.43;;;9.35;;
66342;SDS011;53144;51.524;5.080;2023-05-07T00:30:52;13.82;;;9.68;;
66342;SDS011;53144;51.524;5.080;2023-05-07T00:33:17;10.18;;;9.10;;
66342;SDS011;53144;51.524;5.080;2023-05-07T00:35:43;10.38;;;9.13;;
66342;SDS011;53144;51.524;5.080;2023-05-07T00:38:09;11.25;;;8.20;;
66342;SDS011;53144;51.524;5.080;2023-05-07T00:40:35;9.48;;;8.57;;
66342;SDS011;53144;51.524;5.080;2023-05-07T00:43:00;9.25;;;7.80;;
66342;SDS011;53144;51.524;5.080;2023-05-07T00:45:28;9.98;;;7.38;;
66342;SDS011;53144;51.524;5.080;2023-05-07T00:47:55;8.70;;;7.63;;
66342;SDS011;53144;51.524;5.080;2023-05-07T00:50:22;9.45;;;7.50;;
66342;SDS011;53144;51.524;5.080;2023-05-07T00:52:48;11.25;;;7.80;;
66342;SDS011;53144;51.524;5.080;2023-05-07T00:55:14;8.40;;;7.40;;
66342;SDS011;53144;51.524;5.080;2023-05-07T00:57:40;7.68;;;6.88;;
66342;SDS011;53144;51.524;5.080;2023-05-07T01:00:06;10.15;;;7.70;;
66342;SDS011;53144;51.524;5.080;2023-05-07T01:02:37;8.30;;;7.50;;
66342;SDS011;53144;51.524;5.080;2023-05-07T01:05:03;8.70;;;7.07;;
66342;SDS011;53144;51.524;5.080;2023-05-07T01:07:32;9.27;;;6.90;;
66342;SDS011;53144;51.524;5.080;2023-05-07T01:09:59;9.15;;;8.05;;
66342;SDS011;53144;51.524;5.080;2023-05-07T01:12:25;9.93;;;8.57;;
66342;SDS011;53144;51.524;5.080;2023-05-07T01:14:52;8.70;;;7.80;;
66342;SDS011;53144;51.524;5.080;2023-05-07T01:17:18;13.38;;;8.65;;
66342;SDS011;53144;51.524;5.080;2023-05-07T01:19:44;9.98;;;8.90;;
66342;SDS011;53144;51.524;5.080;2023-05-07T01:22:10;9.13;;;8.15;;
66342;SDS011;53144;51.524;5.080;2023-05-07T01:24:40;9.20;;;8.02;;
66342;SDS011;53144;51.524;5.080;2023-05-07T01:27:06;10.52;;;7.97;;
66342;SDS011;53144;51.524;5.080;2023-05-07T01:29:32;9.23;;;8.25;;
66342;SDS011;53144;51.524;5.080;2023-05-07T01:31:58;12.27;;;8.52;;
66342;SDS011;53144;51.524;5.080;2023-05-07T01:34:25;9.82;;;8.82;;
66342;SDS011;53144;51.524;5.080;2023-05-07T01:36:53;9.18;;;8.27;;
66342;SDS011;53144;51.524;5.080;2023-05-07T01:39:21;10.32;;;8.55;;
66342;SDS011;53144;51.524;5.080;2023-05-07T01:41:48;11.10;;;9.13;;
66342;SDS011;53144;51.524;5.080;2023-05-07T01:44:14;11.48;;;8.57;;
66342;SDS011;53144;51.524;5.080;2023-05-07T01:46:41;10.27;;;9.25;;
66342;SDS011;53144;51.524;5.080;2023-05-07T01:49:06;10.00;;;9.00;;
66342;SDS011;53144;51.524;5.080;2023-05-07T01:51:32;9.65;;;8.65;;
66342;SDS011;53144;51.524;5.080;2023-05-07T01:53:58;10.43;;;8.85;;
66342;SDS011;53144;51.524;5.080;2023-05-07T01:56:24;10.70;;;9.48;;
66342;SDS011;53144;51.524;5.080;2023-05-07T01:58:50;11.63;;;9.68;;
66342;SDS011;53144;51.524;5.080;2023-05-07T02:01:16;13.30;;;9.73;;
66342;SDS011;53144;51.524;5.080;2023-05-07T02:03:42;12.85;;;10.50;;
66342;SDS011;53144;51.524;5.080;2023-05-07T02:06:07;11.50;;;10.32;;
66342;SDS011;53144;51.524;5.080;2023-05-07T02:08:32;10.93;;;9.73;;
66342;SDS011;53144;51.524;5.080;2023-05-07T02:10:58;10.23;;;9.32;;
66342;SDS011;53144;51.524;5.080;2023-05-07T02:13:23;11.68;;;10.50;;
66342;SDS011;53144;51.524;5.080;2023-05-07T02:15:49;13.40;;;9.68;;
66342;SDS011;53144;51.524;5.080;2023-05-07T02:18:15;15.38;;;10.43;;
66342;SDS011;53144;51.524;5.080;2023-05-07T02:20:42;10.88;;;9.77;;
66342;SDS011;53144;51.524;5.080;2023-05-07T02:23:07;10.93;;;9.70;;
66342;SDS011;53144;51.524;5.080;2023-05-07T02:25:33;11.02;;;9.85;;
66342;SDS011;53144;51.524;5.080;2023-05-07T02:27:58;12.38;;;9.50;;
66342;SDS011;53144;51.524;5.080;2023-05-07T02:30:24;11.18;;;9.63;;
66342;SDS011;53144;51.524;5.080;2023-05-07T02:32:50;11.15;;;9.98;;
66342;SDS011;53144;51.524;5.080;2023-05-07T02:35:16;11.20;;;9.88;;
66342;SDS011;53144;51.524;5.080;2023-05-07T02:37:41;11.13;;;10.00;;
66342;SDS011;53144;51.524;5.080;2023-05-07T02:40:07;10.85;;;9.82;;
66342;SDS011;53144;51.524;5.080;2023-05-07T02:42:32;14.18;;;10.80;;
66342;SDS011;53144;51.524;5.080;2023-05-07T02:44:58;12.52;;;11.23;;
66342;SDS011;53144;51.524;5.080;2023-05-07T02:47:24;11.27;;;10.20;;
66342;SDS011;53144;51.524;5.080;2023-05-07T02:49:51;11.77;;;10.02;;
66342;SDS011;53144;51.524;5.080;2023-05-07T02:52:17;12.13;;;10.90;;
66342;SDS011;53144;51.524;5.080;2023-05-07T02:54:43;13.68;;;10.48;;
66342;SDS011;53144;51.524;5.080;2023-05-07T02:57:08;16.20;;;11.20;;
66342;SDS011;53144;51.524;5.080;2023-05-07T02:59:33;11.95;;;10.60;;
66342;SDS011;53144;51.524;5.080;2023-05-07T03:01:59;12.60;;;11.40;;
66342;SDS011;53144;51.524;5.080;2023-05-07T03:04:24;12.52;;;10.05;;
66342;SDS011;53144;51.524;5.080;2023-05-07T03:06:50;11.38;;;10.18;;
66342;SDS011;53144;51.524;5.080;2023-05-07T03:09:15;11.68;;;10.57;;
66342;SDS011;53144;51.524;5.080;2023-05-07T03:11:41;13.20;;;11.20;;
66342;SDS011;53144;51.524;5.080;2023-05-07T03:14:06;14.02;;;11.27;;
66342;SDS011;53144;51.524;5.080;2023-05-07T03:16:32;13.65;;;11.90;;
66342;SDS011;53144;51.524;5.080;2023-05-07T03:18:57;13.43;;;12.10;;
66342;SDS011;53144;51.524;5.080;2023-05-07T03:21:23;15.80;;;12.90;;
66342;SDS011;53144;51.524;5.080;2023-05-07T03:23:48;15.23;;;12.20;;
66342;SDS011;53144;51.524;5.080;2023-05-07T03:26:13;16.15;;;13.68;;
66342;SDS011;53144;51.524;5.080;2023-05-07T03:28:39;15.38;;;13.75;;
66342;SDS011;53144;51.524;5.080;2023-05-07T03:31:04;19.63;;;14.73;;
66342;SDS011;53144;51.524;5.080;2023-05-07T03:33:32;21.38;;;15.38;;
66342;SDS011;53144;51.524;5.080;2023-05-07T03:35:58;17.58;;;15.75;;
66342;SDS011;53144;51.524;5.080;2023-05-07T03:40:49;19.40;;;14.98;;
66342;SDS011;53144;51.524;5.080;2023-05-07T03:43:14;16.80;;;14.82;;
66342;SDS011;53144;51.524;5.080;2023-05-07T03:45:40;17.02;;;15.02;;
66342;SDS011;53144;51.524;5.080;2023-05-07T03:50:31;15.95;;;14.25;;
66342;SDS011;53144;51.524;5.080;2023-05-07T03:52:56;16.35;;;14.40;;
66342;SDS011;53144;51.524;5.080;2023-05-07T03:57:48;19.17;;;15.70;;
66342;SDS011;53144;51.524;5.080;2023-05-07T04:00:13;16.83;;;15.07;;
66342;SDS011;53144;51.524;5.080;2023-05-07T04:02:39;17.83;;;15.18;;
66342;SDS011;53144;51.524;5.080;2023-05-07T04:05:04;17.70;;;15.77;;
66342;SDS011;53144;51.524;5.080;2023-05-07T04:07:30;18.42;;;16.17;;
66342;SDS011;53144;51.524;5.080;2023-05-07T04:09:55;18.00;;;15.93;;
66342;SDS011;53144;51.524;5.080;2023-05-07T04:12:20;17.95;;;15.75;;
66342;SDS011;53144;51.524;5.080;2023-05-07T04:14:46;19.08;;;15.38;;
66342;SDS011;53144;51.524;5.080;2023-05-07T04:17:11;18.48;;;15.27;;
66342;SDS011;53144;51.524;5.080;2023-05-07T04:19:37;19.08;;;15.13;;
66342;SDS011;53144;51.524;5.080;2023-05-07T04:22:02;18.30;;;15.93;;
66342;SDS011;53144;51.524;5.080;2023-05-07T04:24:30;16.45;;;14.82;;
66342;SDS011;53144;51.524;5.080;2023-05-07T04:26:56;16.98;;;13.68;;
66342;SDS011;53144;51.524;5.080;2023-05-07T04:29:23;15.52;;;13.93;;
66342;SDS011;53144;51.524;5.080;2023-05-07T04:31:48;16.25;;;14.55;;
66342;SDS011;53144;51.524;5.080;2023-05-07T04:34:14;16.48;;;14.07;;
66342;SDS011;53144;51.524;5.080;2023-05-07T04:36:39;17.48;;;14.57;;
66342;SDS011;53144;51.524;5.080;2023-05-07T04:39:05;16.25;;;14.32;;
66342;SDS011;53144;51.524;5.080;2023-05-07T04:41:31;16.30;;;13.38;;
66342;SDS011;53144;51.524;5.080;2023-05-07T04:43:57;14.95;;;13.38;;
66342;SDS011;53144;51.524;5.080;2023-05-07T04:46:23;17.52;;;13.50;;
66342;SDS011;53144;51.524;5.080;2023-05-07T04:48:49;15.73;;;14.18;;
66342;SDS011;53144;51.524;5.080;2023-05-07T04:51:15;15.45;;;13.98;;
66342;SDS011;53144;51.524;5.080;2023-05-07T04:53:40;19.08;;;14.07;;
66342;SDS011;53144;51.524;5.080;2023-05-07T04:56:06;23.88;;;15.10;;
66342;SDS011;53144;51.524;5.080;2023-05-07T04:58:31;17.27;;;15.48;;
66342;SDS011;53144;51.524;5.080;2023-05-07T05:00:57;18.88;;;16.63;;
66342;SDS011;53144;51.524;5.080;2023-05-07T05:03:23;20.55;;;17.52;;
66342;SDS011;53144;51.524;5.080;2023-05-07T05:05:49;19.77;;;17.55;;
66342;SDS011;53144;51.524;5.080;2023-05-07T05:08:16;19.83;;;17.52;;
66342;SDS011;53144;51.524;5.080;2023-05-07T05:10:42;19.58;;;17.35;;
66342;SDS011;53144;51.524;5.080;2023-05-07T05:13:08;19.98;;;17.50;;
66342;SDS011;53144;51.524;5.080;2023-05-07T05:15:34;20.67;;;17.05;;
66342;SDS011;53144;51.524;5.080;2023-05-07T05:17:59;20.05;;;17.98;;
66342;SDS011;53144;51.524;5.080;2023-05-07T05:20:25;20.83;;;18.00;;
66342;SDS011;53144;51.524;5.080;2023-05-07T05:22:50;19.83;;;17.20;;
66342;SDS011;53144;51.524;5.080;2023-05-07T05:25:16;20.42;;;16.45;;
66342;SDS011;53144;51.524;5.080;2023-05-07T05:27:41;18.98;;;17.05;;
66342;SDS011;53144;51.524;5.080;2023-05-07T05:30:07;19.58;;;17.52;;
66342;SDS011;53144;51.524;5.080;2023-05-07T05:32:32;19.55;;;17.45;;
66342;SDS011;53144;51.524;5.080;2023-05-07T05:34:58;19.25;;;17.27;;
66342;SDS011;53144;51.524;5.080;2023-05-07T05:37:23;20.45;;;17.75;;
66342;SDS011;53144;51.524;5.080;2023-05-07T05:39:48;19.90;;;17.70;;
66342;SDS011;53144;51.524;5.080;2023-05-07T05:42:14;25.65;;;19.48;;
66342;SDS011;53144;51.524;5.080;2023-05-07T05:44:39;21.48;;;19.25;;
66342;SDS011;53144;51.524;5.080;2023-05-07T05:47:04;21.38;;;18.13;;
66342;SDS011;53144;51.524;5.080;2023-05-07T05:49:30;19.45;;;17.45;;
66342;SDS011;53144;51.524;5.080;2023-05-07T05:51:55;21.08;;;17.75;;
66342;SDS011;53144;51.524;5.080;2023-05-07T05:54:21;21.80;;;19.00;;
66342;SDS011;53144;51.524;5.080;2023-05-07T05:56:46;21.42;;;18.88;;
66342;SDS011;53144;51.524;5.080;2023-05-07T05:59:12;21.50;;;19.17;;
66342;SDS011;53144;51.524;5.080;2023-05-07T06:01:37;21.85;;;19.65;;
66342;SDS011;53144;51.524;5.080;2023-05-07T06:04:03;25.30;;;19.52;;
66342;SDS011;53144;51.524;5.080;2023-05-07T06:06:29;21.38;;;19.20;;
66342;SDS011;53144;51.524;5.080;2023-05-07T06:08:56;22.10;;;19.77;;
66342;SDS011;53144;51.524;5.080;2023-05-07T06:11:21;21.60;;;19.45;;
66342;SDS011;53144;51.524;5.080;2023-05-07T06:13:46;22.10;;;19.20;;
66342;SDS011;53144;51.524;5.080;2023-05-07T06:16:12;22.15;;;20.05;;
66342;SDS011;53144;51.524;5.080;2023-05-07T06:18:37;22.17;;;19.88;;
66342;SDS011;53144;51.524;5.080;2023-05-07T06:21:03;22.52;;;19.85;;
66342;SDS011;53144;51.524;5.080;2023-05-07T06:23:28;21.70;;;19.45;;
66342;SDS011;53144;51.524;5.080;2023-05-07T06:25:54;22.13;;;19.55;;
66342;SDS011;53144;51.524;5.080;2023-05-07T06:28:19;26.90;;;19.10;;
66342;SDS011;53144;51.524;5.080;2023-05-07T06:30:45;23.02;;;20.50;;
66342;SDS011;53144;51.524;5.080;2023-05-07T06:33:10;26.42;;;20.83;;
66342;SDS011;53144;51.524;5.080;2023-05-07T06:35:35;22.60;;;20.20;;
66342;SDS011;53144;51.524;5.080;2023-05-07T06:38:01;23.00;;;20.45;;
66342;SDS011;53144;51.524;5.080;2023-05-07T06:40:26;22.67;;;19.67;;
66342;SDS011;53144;51.524;5.080;2023-05-07T06:42:52;25.52;;;21.35;;
66342;SDS011;53144;51.524;5.080;2023-05-07T06:45:18;23.02;;;20.58;;
66342;SDS011;53144;51.524;5.080;2023-05-07T06:47:44;23.05;;;20.67;;
66342;SDS011;53144;51.524;5.080;2023-05-07T06:50:10;27.58;;;21.00;;
66342;SDS011;53144;51.524;5.080;2023-05-07T06:52:35;24.52;;;21.90;;
66342;SDS011;53144;51.524;5.080;2023-05-07T06:55:01;24.88;;;22.23;;
66342;SDS011;53144;51.524;5.080;2023-05-07T06:57:26;29.65;;;22.08;;
66342;SDS011;53144;51.524;5.080;2023-05-07T06:59:51;23.55;;;21.15;;
66342;SDS011;53144;51.524;5.080;2023-05-07T07:02:17;24.20;;;21.60;;
66342;SDS011;53144;51.524;5.080;2023-05-07T07:04:42;23.67;;;21.25;;
66342;SDS011;53144;51.524;5.080;2023-05-07T07:07:08;22.63;;;19.52;;
66342;SDS011;53144;51.524;5.080;2023-05-07T07:09:33;24.30;;;20.90;;
66342;SDS011;53144;51.524;5.080;2023-05-07T07:11:58;24.10;;;21.48;;
66342;SDS011;53144;51.524;5.080;2023-05-07T07:14:24;23.70;;;20.83;;
66342;SDS011;53144;51.524;5.080;2023-05-07T07:16:49;23.13;;;20.77;;
66342;SDS011;53144;51.524;5.080;2023-05-07T07:19:14;23.77;;;21.13;;
66342;SDS011;53144;51.524;5.080;2023-05-07T07:21:40;24.27;;;21.05;;
66342;SDS011;53144;51.524;5.080;2023-05-07T07:24:06;21.80;;;19.55;;
66342;SDS011;53144;51.524;5.080;2023-05-07T07:26:32;23.33;;;20.92;;
66342;SDS011;53144;51.524;5.080;2023-05-07T07:28:57;24.10;;;20.70;;
66342;SDS011;53144;51.524;5.080;2023-05-07T07:31:22;23.08;;;20.58;;
66342;SDS011;53144;51.524;5.080;2023-05-07T07:33:48;22.15;;;19.65;;
66342;SDS011;53144;51.524;5.080;2023-05-07T07:36:15;21.63;;;19.42;;
66342;SDS011;53144;51.524;5.080;2023-05-07T07:38:40;22.40;;;20.00;;
66342;SDS011;53144;51.524;5.080;2023-05-07T07:41:07;21.95;;;19.63;;
66342;SDS011;53144;51.524;5.080;2023-05-07T07:43:33;25.40;;;20.92;;
66342;SDS011;53144;51.524;5.080;2023-05-07T07:45:59;24.75;;;18.80;;
66342;SDS011;53144;51.524;5.080;2023-05-07T07:48:24;20.13;;;17.88;;
66342;SDS011;53144;51.524;5.080;2023-05-07T07:50:50;20.20;;;18.10;;
66342;SDS011;53144;51.524;5.080;2023-05-07T07:53:19;20.85;;;18.80;;
66342;SDS011;53144;51.524;5.080;2023-05-07T07:55:44;24.30;;;20.20;;
66342;SDS011;53144;51.524;5.080;2023-05-07T07:58:10;21.17;;;18.98;;
66342;SDS011;53144;51.524;5.080;2023-05-07T08:00:35;19.85;;;17.80;;
66342;SDS011;53144;51.524;5.080;2023-05-07T08:03:01;20.92;;;18.73;;
66342;SDS011;53144;51.524;5.080;2023-05-07T08:05:28;18.75;;;16.92;;
66342;SDS011;53144;51.524;5.080;2023-05-07T08:07:53;23.17;;;17.95;;
66342;SDS011;53144;51.524;5.080;2023-05-07T08:10:19;20.65;;;17.70;;
66342;SDS011;53144;51.524;5.080;2023-05-07T08:12:48;19.98;;;18.00;;
66342;SDS011;53144;51.524;5.080;2023-05-07T08:15:14;19.38;;;17.35;;
66342;SDS011;53144;51.524;5.080;2023-05-07T08:17:39;18.98;;;16.83;;
66342;SDS011;53144;51.524;5.080;2023-05-07T08:20:05;19.30;;;17.27;;
66342;SDS011;53144;51.524;5.080;2023-05-07T08:22:31;19.67;;;16.38;;
66342;SDS011;53144;51.524;5.080;2023-05-07T08:24:57;18.98;;;17.08;;
66342;SDS011;53144;51.524;5.080;2023-05-07T08:27:22;18.55;;;16.75;;
66342;SDS011;53144;51.524;5.080;2023-05-07T08:29:47;19.58;;;16.17;;
66342;SDS011;53144;51.524;5.080;2023-05-07T08:32:13;18.77;;;16.08;;
66342;SDS011;53144;51.524;5.080;2023-05-07T08:34:39;18.42;;;16.52;;
66342;SDS011;53144;51.524;5.080;2023-05-07T08:37:05;17.13;;;15.48;;
66342;SDS011;53144;51.524;5.080;2023-05-07T08:39:30;20.50;;;16.38;;
66342;SDS011;53144;51.524;5.080;2023-05-07T08:41:55;17.02;;;15.40;;
66342;SDS011;53144;51.524;5.080;2023-05-07T08:44:26;18.23;;;16.42;;
66342;SDS011;53144;51.524;5.080;2023-05-07T08:46:56;17.15;;;15.40;;
66342;SDS011;53144;51.524;5.080;2023-05-07T08:49:21;16.80;;;15.13;;
66342;SDS011;53144;51.524;5.080;2023-05-07T08:51:47;17.30;;;15.50;;
66342;SDS011;53144;51.524;5.080;2023-05-07T08:54:15;18.25;;;16.40;;
66342;SDS011;53144;51.524;5.080;2023-05-07T08:56:41;17.67;;;15.68;;
66342;SDS011;53144;51.524;5.080;2023-05-07T08:59:07;22.10;;;15.98;;
66342;SDS011;53144;51.524;5.080;2023-05-07T09:01:32;17.60;;;15.90;;
66342;SDS011;53144;51.524;5.080;2023-05-07T09:04:00;18.27;;;16.48;;
66342;SDS011;53144;51.524;5.080;2023-05-07T09:06:25;18.10;;;16.30;;
66342;SDS011;53144;51.524;5.080;2023-05-07T09:08:52;17.50;;;15.70;;
66342;SDS011;53144;51.524;5.080;2023-05-07T09:11:22;16.88;;;15.05;;
66342;SDS011;53144;51.524;5.080;2023-05-07T09:13:48;17.17;;;15.38;;
66342;SDS011;53144;51.524;5.080;2023-05-07T09:16:19;18.00;;;16.10;;
66342;SDS011;53144;51.524;5.080;2023-05-07T09:18:46;16.30;;;14.60;;
66342;SDS011;53144;51.524;5.080;2023-05-07T09:21:16;16.83;;;15.23;;
66342;SDS011;53144;51.524;5.080;2023-05-07T09:23:42;16.95;;;15.32;;
66342;SDS011;53144;51.524;5.080;2023-05-07T09:26:07;18.90;;;15.80;;
66342;SDS011;53144;51.524;5.080;2023-05-07T09:28:40;17.20;;;15.45;;
66342;SDS011;53144;51.524;5.080;2023-05-07T09:31:09;19.15;;;15.65;;
66342;SDS011;53144;51.524;5.080;2023-05-07T09:33:35;17.90;;;15.88;;
66342;SDS011;53144;51.524;5.080;2023-05-07T09:36:07;17.95;;;16.13;;
66342;SDS011;53144;51.524;5.080;2023-05-07T09:38:34;19.33;;;17.00;;
66342;SDS011;53144;51.524;5.080;2023-05-07T09:41:04;18.33;;;16.40;;
66342;SDS011;53144;51.524;5.080;2023-05-07T09:43:34;18.92;;;17.02;;
66342;SDS011;53144;51.524;5.080;2023-05-07T09:46:14;18.08;;;16.17;;
66342;SDS011;53144;51.524;5.080;2023-05-07T09:48:41;18.65;;;16.58;;
66342;SDS011;53144;51.524;5.080;2023-05-07T09:51:25;18.95;;;16.45;;
66342;SDS011;53144;51.524;5.080;2023-05-07T09:53:54;17.90;;;15.45;;
66342;SDS011;53144;51.524;5.080;2023-05-07T09:56:21;17.83;;;16.02;;
66342;SDS011;53144;51.524;5.080;2023-05-07T09:58:46;17.63;;;15.95;;
66342;SDS011;53144;51.524;5.080;2023-05-07T10:01:13;17.67;;;16.00;;
66342;SDS011;53144;51.524;5.080;2023-05-07T10:03:41;18.25;;;16.35;;
66342;SDS011;53144;51.524;5.080;2023-05-07T10:06:09;19.42;;;16.20;;
66342;SDS011;53144;51.524;5.080;2023-05-07T10:08:36;17.67;;;16.05;;
66342;SDS011;53144;51.524;5.080;2023-05-07T10:11:03;17.35;;;15.10;;
66342;SDS011;53144;51.524;5.080;2023-05-07T10:13:31;15.68;;;14.15;;
66342;SDS011;53144;51.524;5.080;2023-05-07T10:15:59;15.10;;;13.57;;
66342;SDS011;53144;51.524;5.080;2023-05-07T10:18:25;15.32;;;13.43;;
66342;SDS011;53144;51.524;5.080;2023-05-07T10:20:54;16.02;;;14.00;;
66342;SDS011;53144;51.524;5.080;2023-05-07T10:23:32;15.50;;;13.32;;
66342;SDS011;53144;51.524;5.080;2023-05-07T10:25:59;15.13;;;12.82;;
66342;SDS011;53144;51.524;5.080;2023-05-07T10:28:28;15.70;;;13.00;;
66342;SDS011;53144;51.524;5.080;2023-05-07T10:31:08;13.43;;;12.10;;
66342;SDS011;53144;51.524;5.080;2023-05-07T10:33:50;13.38;;;11.27;;
66342;SDS011;53144;51.524;5.080;2023-05-07T10:36:18;11.07;;;9.25;;
66342;SDS011;53144;51.524;5.080;2023-05-07T10:38:44;11.20;;;8.80;;
66342;SDS011;53144;51.524;5.080;2023-05-07T10:41:11;12.35;;;10.38;;
66342;SDS011;53144;51.524;5.080;2023-05-07T10:43:43;14.48;;;10.23;;
66342;SDS011;53144;51.524;5.080;2023-05-07T10:46:10;12.63;;;10.15;;
66342;SDS011;53144;51.524;5.080;2023-05-07T10:51:28;13.05;;;10.07;;
66342;SDS011;53144;51.524;5.080;2023-05-07T10:56:36;11.38;;;10.27;;
66342;SDS011;53144;51.524;5.080;2023-05-07T11:01:55;10.73;;;9.68;;
66342;SDS011;53144;51.524;5.080;2023-05-07T11:04:22;10.95;;;9.88;;
66342;SDS011;53144;51.524;5.080;2023-05-07T11:15:04;12.52;;;10.32;;
66342;SDS011;53144;51.524;5.080;2023-05-07T11:17:35;13.25;;;10.23;;
66342;SDS011;53144;51.524;5.080;2023-05-07T11:20:18;12.35;;;10.73;;
66342;SDS011;53144;51.524;5.080;2023-05-07T11:22:43;12.43;;;11.00;;
66342;SDS011;53144;51.524;5.080;2023-05-07T11:25:09;14.52;;;12.05;;
66342;SDS011;53144;51.524;5.080;2023-05-07T11:27:34;13.05;;;11.18;;
66342;SDS011;53144;51.524;5.080;2023-05-07T11:30:00;13.80;;;11.32;;
66342;SDS011;53144;51.524;5.080;2023-05-07T11:32:29;14.13;;;11.30;;
66342;SDS011;53144;51.524;5.080;2023-05-07T11:34:56;11.63;;;9.82;;
66342;SDS011;53144;51.524;5.080;2023-05-07T11:37:23;11.82;;;10.02;;
66342;SDS011;53144;51.524;5.080;2023-05-07T11:39:50;11.38;;;9.07;;
66342;SDS011;53144;51.524;5.080;2023-05-07T11:44:55;10.13;;;9.07;;
66342;SDS011;53144;51.524;5.080;2023-05-07T11:47:21;11.55;;;9.77;;
66342;SDS011;53144;51.524;5.080;2023-05-07T11:49:50;13.02;;;10.18;;
66342;SDS011;53144;51.524;5.080;2023-05-07T11:52:17;11.10;;;10.00;;
66342;SDS011;53144;51.524;5.080;2023-05-07T11:54:51;14.32;;;10.13;;
66342;SDS011;53144;51.524;5.080;2023-05-07T11:57:20;11.05;;;9.10;;
66342;SDS011;53144;51.524;5.080;2023-05-07T11:59:46;9.98;;;8.98;;
66342;SDS011;53144;51.524;5.080;2023-05-07T12:02:16;11.07;;;9.68;;
66342;SDS011;53144;51.524;5.080;2023-05-07T12:04:42;9.85;;;8.82;;
66342;SDS011;53144;51.524;5.080;2023-05-07T12:07:12;9.43;;;8.50;;
66342;SDS011;53144;51.524;5.080;2023-05-07T12:09:38;9.23;;;8.20;;
66342;SDS011;53144;51.524;5.080;2023-05-07T12:12:04;12.68;;;8.85;;
66342;SDS011;53144;51.524;5.080;2023-05-07T12:14:30;12.23;;;8.23;;
66342;SDS011;53144;51.524;5.080;2023-05-07T12:16:56;10.35;;;7.82;;
66342;SDS011;53144;51.524;5.080;2023-05-07T12:19:22;14.32;;;9.13;;
66342;SDS011;53144;51.524;5.080;2023-05-07T12:21:47;9.38;;;7.70;;
66342;SDS011;53144;51.524;5.080;2023-05-07T12:24:16;10.13;;;8.10;;
66342;SDS011;53144;51.524;5.080;2023-05-07T12:26:41;14.30;;;9.02;;
66342;SDS011;53144;51.524;5.080;2023-05-07T12:29:08;12.50;;;9.02;;
66342;SDS011;53144;51.524;5.080;2023-05-07T12:31:33;13.75;;;9.98;;
66342;SDS011;53144;51.524;5.080;2023-05-07T12:33:59;12.18;;;9.73;;
66342;SDS011;53144;51.524;5.080;2023-05-07T12:36:24;13.68;;;9.90;;
66342;SDS011;53144;51.524;5.080;2023-05-07T12:38:50;12.35;;;9.57;;
66342;SDS011;53144;51.524;5.080;2023-05-07T12:41:16;11.45;;;10.15;;
66342;SDS011;53144;51.524;5.080;2023-05-07T12:43:44;14.30;;;9.50;;
66342;SDS011;53144;51.524;5.080;2023-05-07T12:46:11;9.80;;;8.43;;
66342;SDS011;53144;51.524;5.080;2023-05-07T12:48:43;12.90;;;8.93;;
66342;SDS011;53144;51.524;5.080;2023-05-07T12:51:11;15.27;;;9.15;;
66342;SDS011;53144;51.524;5.080;2023-05-07T12:53:41;13.80;;;9.70;;
66342;SDS011;53144;51.524;5.080;2023-05-07T12:56:08;13.20;;;8.88;;
66342;SDS011;53144;51.524;5.080;2023-05-07T12:58:34;13.27;;;9.63;;
66342;SDS011;53144;51.524;5.080;2023-05-07T13:01:01;12.70;;;9.20;;
66342;SDS011;53144;51.524;5.080;2023-05-07T13:05:59;12.40;;;10.32;;
66342;SDS011;53144;51.524;5.080;2023-05-07T13:08:27;16.88;;;11.38;;
66342;SDS011;53144;51.524;5.080;2023-05-07T13:10:54;13.48;;;11.13;;
66342;SDS011;53144;51.524;5.080;2023-05-07T13:13:20;16.55;;;13.10;;
66342;SDS011;53144;51.524;5.080;2023-05-07T13:15:46;18.27;;;12.90;;
66342;SDS011;53144;51.524;5.080;2023-05-07T13:18:12;17.27;;;13.10;;
66342;SDS011;53144;51.524;5.080;2023-05-07T13:20:38;14.30;;;12.05;;
66342;SDS011;53144;51.524;5.080;2023-05-07T13:23:03;13.85;;;11.90;;
66342;SDS011;53144;51.524;5.080;2023-05-07T13:25:29;14.65;;;13.10;;
66342;SDS011;53144;51.524;5.080;2023-05-07T13:27:58;16.08;;;13.95;;
66342;SDS011;53144;51.524;5.080;2023-05-07T13:30:24;16.88;;;13.13;;
66342;SDS011;53144;51.524;5.080;2023-05-07T13:32:49;15.65;;;13.38;;
66342;SDS011;53144;51.524;5.080;2023-05-07T13:35:15;16.95;;;12.95;;
66342;SDS011;53144;51.524;5.080;2023-05-07T13:37:41;15.98;;;12.50;;
66342;SDS011;53144;51.524;5.080;2023-05-07T13:40:07;17.63;;;13.30;;
66342;SDS011;53144;51.524;5.080;2023-05-07T13:42:33;18.95;;;13.57;;
66342;SDS011;53144;51.524;5.080;2023-05-07T13:44:58;15.32;;;13.55;;
66342;SDS011;53144;51.524;5.080;2023-05-07T13:47:23;15.32;;;12.73;;
66342;SDS011;53144;51.524;5.080;2023-05-07T13:49:49;16.63;;;13.38;;
66342;SDS011;53144;51.524;5.080;2023-05-07T13:52:15;16.17;;;13.02;;
66342;SDS011;53144;51.524;5.080;2023-05-07T13:54:41;13.43;;;10.93;;
66342;SDS011;53144;51.524;5.080;2023-05-07T13:57:06;16.25;;;11.52;;
66342;SDS011;53144;51.524;5.080;2023-05-07T13:59:32;17.02;;;11.45;;
66342;SDS011;53144;51.524;5.080;2023-05-07T14:01:58;12.63;;;11.27;;
66342;SDS011;53144;51.524;5.080;2023-05-07T14:04:23;14.30;;;11.18;;
66342;SDS011;53144;51.524;5.080;2023-05-07T14:06:48;14.18;;;11.77;;
66342;SDS011;53144;51.524;5.080;2023-05-07T14:09:14;15.00;;;12.15;;
66342;SDS011;53144;51.524;5.080;2023-05-07T14:11:39;18.58;;;12.55;;
66342;SDS011;53144;51.524;5.080;2023-05-07T14:14:05;15.70;;;12.73;;
66342;SDS011;53144;51.524;5.080;2023-05-07T14:16:30;17.55;;;13.15;;
66342;SDS011;53144;51.524;5.080;2023-05-07T14:18:56;16.98;;;12.32;;
66342;SDS011;53144;51.524;5.080;2023-05-07T14:21:21;13.50;;;11.75;;
66342;SDS011;53144;51.524;5.080;2023-05-07T14:23:46;14.13;;;11.82;;
66342;SDS011;53144;51.524;5.080;2023-05-07T14:26:12;16.20;;;12.80;;
66342;SDS011;53144;51.524;5.080;2023-05-07T14:28:37;16.90;;;12.55;;
66342;SDS011;53144;51.524;5.080;2023-05-07T14:31:04;14.18;;;12.23;;
66342;SDS011;53144;51.524;5.080;2023-05-07T14:33:31;12.73;;;11.40;;
66342;SDS011;53144;51.524;5.080;2023-05-07T14:35:56;14.60;;;11.68;;
66342;SDS011;53144;51.524;5.080;2023-05-07T14:38:22;15.75;;;12.85;;
66342;SDS011;53144;51.524;5.080;2023-05-07T14:40:47;15.82;;;12.35;;
66342;SDS011;53144;51.524;5.080;2023-05-07T14:43:12;15.48;;;12.57;;
66342;SDS011;53144;51.524;5.080;2023-05-07T14:45:38;12.55;;;8.68;;
66342;SDS011;53144;51.524;5.080;2023-05-07T14:48:03;10.00;;;5.75;;
66342;SDS011;53144;51.524;5.080;2023-05-07T14:50:29;9.20;;;6.90;;